createdAt,value
2018-11-29T00:00:12.234Z,28.6
2018-11-29T00:01:03.435Z,28.8
2018-11-29T00:01:53.208Z,29.1
2018-11-29T00:02:43.308Z,29.4
2018-11-29T00:03:33.380Z,29.6
2018-11-29T00:04:23.438Z,29.9
2018-11-29T00:05:14.207Z,30.1
2018-11-29T00:06:04.345Z,30.3
2018-11-29T00:06:54.035Z,30.5
2018-11-29T00:25:08.129Z,27.4
2018-11-29T00:25:59.059Z,27.3
2018-11-29T00:26:48.580Z,27.1
2018-11-29T00:27:37.532Z,27.1
2018-11-29T00:28:28.401Z,26.9
2018-11-29T00:29:19.319Z,26.8
2018-11-29T00:30:08.875Z,26.7
2018-11-29T00:30:59.406Z,26.5
2018-11-29T00:31:48.672Z,26.6
2018-11-29T00:32:38.469Z,27.1
2018-11-29T00:34:19.354Z,28.1
2018-11-29T00:35:07.874Z,28.4
2018-11-29T00:35:57.388Z,28.6
2018-11-29T00:36:48.791Z,28.9
2018-11-29T00:37:37.733Z,29.1
2018-11-29T00:38:28.803Z,29.4
2018-11-29T00:39:18.938Z,29.7
2018-11-29T00:40:08.708Z,29.9
2018-11-29T00:40:59.681Z,30.1
2018-11-29T00:41:49.440Z,30.3
2018-11-29T00:42:38.904Z,30.4
2018-11-29T00:43:28.400Z,30.6
2018-11-29T00:44:20.083Z,30.8
2018-11-29T00:45:09.895Z,30.9
2018-11-29T00:45:59.708Z,31
2018-11-29T00:46:49.723Z,31.1
2018-11-29T00:47:39.866Z,31.3
2018-11-29T00:48:30.890Z,31.3
2018-11-29T00:49:19.703Z,31.2
2018-11-29T00:50:10.228Z,31.1
2018-11-29T00:51:00.696Z,30.9
2018-11-29T00:51:51.077Z,30.8
2018-11-29T00:52:40.111Z,30.7
2018-11-29T00:53:30.117Z,30.6
2018-11-29T00:54:20.745Z,30.4
2018-11-29T00:55:09.952Z,30.3
2018-11-29T00:56:01.205Z,30.1
2018-11-29T00:56:48.815Z,30
2018-11-29T00:57:38.825Z,29.9
2018-11-29T00:58:29.734Z,28.6
2018-11-29T00:59:21.110Z,28
2018-11-29T01:00:09.664Z,27.7
2018-11-29T01:01:00.205Z,27.4
2018-11-29T01:01:50.324Z,27.3
2018-11-29T01:02:40.402Z,27.1
2018-11-29T01:03:30.722Z,27
2018-11-29T01:04:20.494Z,26.9
2018-11-29T01:05:10.862Z,26.8
2018-11-29T01:06:00.602Z,26.7
2018-11-29T01:06:51.741Z,26.6
2018-11-29T01:07:41.493Z,26.4
2018-11-29T01:08:30.805Z,26.5
2018-11-29T01:09:22.154Z,27
2018-11-29T01:10:11.666Z,27.6
2018-11-29T01:11:02.226Z,27.9
2018-11-29T01:11:51.756Z,28.2
2018-11-29T01:12:40.891Z,28.5
2018-11-29T01:13:31.833Z,28.8
2018-11-29T01:14:20.808Z,29
2018-11-29T01:15:11.415Z,29.3
2018-11-29T01:16:01.996Z,29.5
2018-11-29T01:16:50.959Z,29.7
2018-11-29T01:17:42.136Z,29.9
2018-11-29T01:18:31.660Z,30.1
2018-11-29T01:19:22.025Z,30.3
2018-11-29T01:20:13.297Z,30.4
2018-11-29T01:21:01.883Z,30.6
2018-11-29T01:21:52.450Z,30.7
2018-11-29T01:22:41.733Z,30.8
2018-11-29T01:23:32.799Z,30.9
2018-11-29T01:24:22.385Z,31
2018-11-29T01:25:11.892Z,31.1
2018-11-29T01:26:02.746Z,31.3
2018-11-29T01:26:53.368Z,31.3
2018-11-29T01:27:42.318Z,31.2
2018-11-29T01:28:33.443Z,31.1
2018-11-29T01:29:22.368Z,30.9
2018-11-29T01:30:13.302Z,30.8
2018-11-29T01:31:03.577Z,30.7
2018-11-29T01:31:53.628Z,30.6
2018-11-29T01:32:43.172Z,30.4
2018-11-29T01:33:33.752Z,30.3
2018-11-29T01:34:23.612Z,30.1
2018-11-29T01:35:13.397Z,30
2018-11-29T01:36:03.398Z,29.9
2018-11-29T01:36:53.774Z,28.6
2018-11-29T01:37:43.077Z,27.9
2018-11-29T01:38:33.341Z,27.6
2018-11-29T01:39:23.115Z,27.3
2018-11-29T01:40:14.543Z,27.1
2018-11-29T01:41:04.304Z,27
2018-11-29T01:41:53.895Z,26.9
2018-11-29T01:42:43.880Z,26.8
2018-11-29T01:43:33.705Z,26.6
2018-11-29T01:44:23.727Z,26.5
2018-11-29T01:45:13.527Z,26.3
2018-11-29T01:46:03.313Z,26.4
2018-11-29T01:46:53.982Z,26.9
2018-11-29T01:47:43.492Z,27.7
2018-11-29T01:48:34.045Z,27.9
2018-11-29T01:49:24.327Z,28.2
2018-11-29T01:50:14.514Z,28.4
2018-11-29T01:51:04.278Z,28.7
2018-11-29T01:51:54.040Z,28.9
2018-11-29T01:52:43.519Z,29.2
2018-11-29T01:53:34.737Z,29.4
2018-11-29T01:54:24.172Z,29.6
2018-11-29T01:55:14.305Z,29.9
2018-11-29T01:56:05.119Z,30
2018-11-29T01:56:55.447Z,30.2
2018-11-29T01:57:44.679Z,30.4
2018-11-29T01:58:34.474Z,30.5
2018-11-29T01:59:25.401Z,30.6
2018-11-29T02:00:14.564Z,30.8
2018-11-29T02:01:05.372Z,30.9
2018-11-29T02:01:54.674Z,30.9
2018-11-29T02:02:45.908Z,31.1
2018-11-29T02:03:35.624Z,31.2
2018-11-29T02:04:25.379Z,31.3
2018-11-29T02:05:15.276Z,31.3
2018-11-29T02:06:05.756Z,31.1
2018-11-29T02:06:55.079Z,31
2018-11-29T02:07:45.114Z,30.8
2018-11-29T02:08:35.693Z,30.7
2018-11-29T02:09:24.983Z,30.6
2018-11-29T02:10:15.574Z,30.4
2018-11-29T02:11:05.648Z,30.3
2018-11-29T02:11:55.963Z,30.1
2018-11-29T02:12:44.746Z,30
2018-11-29T02:13:35.566Z,29.9
2018-11-29T02:14:25.901Z,28.4
2018-11-29T02:15:15.718Z,27.9
2018-11-29T02:16:05.156Z,27.5
2018-11-29T02:16:55.676Z,27.3
2018-11-29T02:17:45.610Z,27.1
2018-11-29T02:18:35.606Z,27
2018-11-29T02:19:26.230Z,26.9
2018-11-29T02:20:16.080Z,26.8
2018-11-29T02:21:05.531Z,26.6
2018-11-29T02:21:57.186Z,26.6
2018-11-29T02:22:45.915Z,26.3
2018-11-29T02:23:36.280Z,26.4
2018-11-29T02:24:27.163Z,26.9
2018-11-29T02:25:16.678Z,27.7
2018-11-29T02:26:06.608Z,27.9
2018-11-29T02:26:55.907Z,28.2
2018-11-29T02:27:46.270Z,28.4
2018-11-29T02:28:36.054Z,28.6
2018-11-29T02:29:25.872Z,28.9
2018-11-29T02:30:17.617Z,29.1
2018-11-29T02:31:07.095Z,29.4
2018-11-29T02:31:57.628Z,29.6
2018-11-29T02:32:47.543Z,29.8
2018-11-29T02:33:36.369Z,29.9
2018-11-29T02:34:26.808Z,30.1
2018-11-29T02:35:17.367Z,29.9
2018-11-29T02:36:06.642Z,29.6
2018-11-29T02:36:57.187Z,28.8
2018-11-29T02:37:47.747Z,27.9
2018-11-29T02:38:37.821Z,27.1
2018-11-29T02:39:28.028Z,26.1
2018-11-29T02:40:17.135Z,25.3
2018-11-29T02:41:07.709Z,24.8
2018-11-29T02:41:58.299Z,24.9
2018-11-29T02:42:48.243Z,25.4
2018-11-29T02:43:38.264Z,26.4
2018-11-29T02:44:28.733Z,27.6
2018-11-29T02:46:08.143Z,28.1
2018-11-29T02:46:58.689Z,28.3
2018-11-29T02:47:48.227Z,28.5
2018-11-29T02:48:38.159Z,28.8
2018-11-29T02:49:27.856Z,29.1
2018-11-29T02:50:18.938Z,29.3
2018-11-29T02:51:07.896Z,29.6
2018-11-29T02:51:59.051Z,29.8
2018-11-29T02:52:48.597Z,29.9
2018-11-29T02:53:38.657Z,30.1
2018-11-29T02:54:28.983Z,30.3
2018-11-29T02:55:19.198Z,30.4
2018-11-29T02:56:09.411Z,30.5
2018-11-29T02:56:58.835Z,30.7
2018-11-29T02:57:49.455Z,30.8
2018-11-29T02:58:38.991Z,30.9
2018-11-29T02:59:29.882Z,31
2018-11-29T03:00:19.416Z,31.1
2018-11-29T03:01:09.947Z,31.2
2018-11-29T03:01:59.249Z,31.3
2018-11-29T03:02:49.577Z,31.3
2018-11-29T03:03:39.570Z,31.1
2018-11-29T03:04:29.940Z,31
2018-11-29T03:05:20.285Z,30.9
2018-11-29T03:06:09.197Z,30.7
2018-11-29T03:06:59.510Z,30.6
2018-11-29T03:07:49.135Z,30.4
2018-11-29T03:08:40.718Z,30.3
2018-11-29T03:09:29.812Z,30.1
2018-11-29T03:10:20.064Z,30
2018-11-29T03:11:10.409Z,29.9
2018-11-29T03:11:59.044Z,29.3
2018-11-29T03:12:49.965Z,28.2
2018-11-29T03:13:40.852Z,27.6
2018-11-29T03:14:31.497Z,27.3
2018-11-29T03:15:20.339Z,27.1
2018-11-29T03:16:10.559Z,26.9
2018-11-29T03:17:00.500Z,26.8
2018-11-29T03:17:51.002Z,26.6
2018-11-29T03:18:41.124Z,26.5
2018-11-29T03:19:30.499Z,26.3
2018-11-29T03:20:21.159Z,26.3
2018-11-29T03:21:11.065Z,26.4
2018-11-29T03:22:01.149Z,27.1
2018-11-29T03:22:51.015Z,27.8
2018-11-29T03:23:40.997Z,27.9
2018-11-29T03:24:30.424Z,28.2
2018-11-29T03:25:20.829Z,28.4
2018-11-29T03:26:10.671Z,28.6
2018-11-29T03:27:01.754Z,28.9
2018-11-29T03:27:51.283Z,29.2
2018-11-29T03:28:42.306Z,29.4
2018-11-29T03:29:31.361Z,29.6
2018-11-29T03:30:22.471Z,29.8
2018-11-29T03:31:11.699Z,29.9
2018-11-29T03:32:02.399Z,30.1
2018-11-29T03:32:51.247Z,30.2
2018-11-29T03:33:42.381Z,30.3
2018-11-29T03:34:32.240Z,30.4
2018-11-29T03:35:21.673Z,30.6
2018-11-29T03:36:11.965Z,30.7
2018-11-29T03:37:01.412Z,30.8
2018-11-29T03:37:51.985Z,30.9
2018-11-29T03:38:42.605Z,30.9
2018-11-29T03:39:32.367Z,31
2018-11-29T03:40:22.451Z,31.1
2018-11-29T03:41:11.365Z,31.2
2018-11-29T03:42:02.327Z,31.3
2018-11-29T03:42:52.084Z,31.3
2018-11-29T03:43:42.370Z,31.2
2018-11-29T03:44:31.597Z,31.1
2018-11-29T03:45:23.125Z,30.9
2018-11-29T03:46:12.318Z,30.8
2018-11-29T03:47:03.814Z,30.6
2018-11-29T03:47:52.717Z,30.4
2018-11-29T03:48:43.279Z,30.3
2018-11-29T03:49:33.096Z,30.2
2018-11-29T03:50:23.147Z,30.1
2018-11-29T03:51:12.878Z,29.9
2018-11-29T03:52:02.998Z,29.8
2018-11-29T03:52:53.885Z,28.6
2018-11-29T03:54:33.480Z,27.4
2018-11-29T03:55:23.759Z,27.1
2018-11-29T03:56:13.530Z,26.9
2018-11-29T03:57:03.851Z,26.8
2018-11-29T03:57:53.421Z,26.7
2018-11-29T03:58:43.974Z,26.6
2018-11-29T03:59:32.909Z,26.4
2018-11-29T04:00:24.649Z,26.3
2018-11-29T04:01:13.572Z,26.3
2018-11-29T04:02:03.081Z,26.8
2018-11-29T04:02:53.549Z,27.5
2018-11-29T04:03:43.777Z,27.9
2018-11-29T04:04:33.538Z,28.1
2018-11-29T04:05:23.692Z,28.3
2018-11-29T04:06:13.930Z,28.5
2018-11-29T04:07:03.459Z,28.8
2018-11-29T04:07:54.630Z,29
2018-11-29T04:08:43.808Z,29.3
2018-11-29T04:09:34.201Z,29.4
2018-11-29T04:10:25.740Z,29.6
2018-11-29T04:11:15.053Z,29.8
2018-11-29T04:12:04.701Z,29.9
2018-11-29T04:12:54.423Z,30.1
2018-11-29T04:13:43.410Z,30.3
2018-11-29T04:14:34.248Z,30.4
2018-11-29T04:15:24.890Z,30.5
2018-11-29T04:16:14.316Z,30.6
2018-11-29T04:17:05.260Z,30.7
2018-11-29T04:17:54.835Z,30.8
2018-11-29T04:18:44.885Z,30.9
2018-11-29T04:19:34.035Z,31
2018-11-29T04:20:25.210Z,31.1
2018-11-29T04:21:13.705Z,31.1
2018-11-29T04:22:05.370Z,31.3
2018-11-29T04:22:54.853Z,31.3
2018-11-29T04:23:45.450Z,31.2
2018-11-29T04:24:34.952Z,31.1
2018-11-29T04:25:26.661Z,30.9
2018-11-29T04:26:16.444Z,30.8
2018-11-29T04:27:05.440Z,30.6
2018-11-29T04:27:55.172Z,30.5
2018-11-29T04:28:45.490Z,30.3
2018-11-29T04:29:35.632Z,30.2
2018-11-29T04:30:26.287Z,30.1
2018-11-29T04:31:15.732Z,29.9
2018-11-29T04:32:06.045Z,29.2
2018-11-29T04:32:57.420Z,28.2
2018-11-29T04:33:45.874Z,27.7
2018-11-29T04:34:35.986Z,27.4
2018-11-29T04:35:26.464Z,27.1
2018-11-29T04:36:16.321Z,27
2018-11-29T04:54:23.983Z,30.3
2018-11-29T04:55:15.312Z,30.4
2018-11-29T04:56:04.588Z,30.6
2018-11-29T04:56:54.308Z,30.7
2018-11-29T04:57:44.664Z,30.8
2018-11-29T04:58:34.993Z,30.9
2018-11-29T04:59:24.755Z,30.9
2018-11-29T05:00:14.493Z,31.1
2018-11-29T05:01:04.025Z,31.1
2018-11-29T05:01:54.883Z,31.2
2018-11-29T05:02:45.043Z,31.3
2018-11-29T05:03:34.218Z,31.3
2018-11-29T05:04:25.153Z,31.1
2018-11-29T05:05:15.083Z,30.9
2018-11-29T05:06:05.173Z,30.8
2018-11-29T05:06:54.687Z,30.7
2018-11-29T05:07:45.094Z,30.6
2018-11-29T05:08:35.038Z,30.4
2018-11-29T05:09:25.935Z,30.3
2018-11-29T05:10:15.783Z,30.1
2018-11-29T05:11:04.965Z,29.9
2018-11-29T05:11:55.882Z,29.9
2018-11-29T05:12:46.169Z,28.9
2018-11-29T05:13:34.372Z,28
2018-11-29T05:14:25.242Z,27.6
2018-11-29T05:15:16.330Z,27.2
2018-11-29T05:16:05.583Z,27
2018-11-29T05:16:55.089Z,26.8
2018-11-29T05:17:44.342Z,26.7
2018-11-29T05:18:36.972Z,26.6
2018-11-29T05:19:26.362Z,26.4
2018-11-29T05:20:15.624Z,26.3
2018-11-29T05:21:06.454Z,26.3
2018-11-29T05:21:54.922Z,26.7
2018-11-29T05:22:46.396Z,27.4
2018-11-29T05:23:36.427Z,27.9
2018-11-29T05:24:26.505Z,28
2018-11-29T05:25:18.342Z,28.3
2018-11-29T05:26:06.604Z,28.4
2018-11-29T05:26:56.628Z,28.7
2018-11-29T05:27:46.398Z,28.9
2018-11-29T05:28:35.881Z,29.1
2018-11-29T05:29:26.763Z,29.4
2018-11-29T05:30:16.557Z,29.5
2018-11-29T05:31:06.628Z,29.7
2018-11-29T05:31:56.745Z,29.9
2018-11-29T05:32:47.008Z,30
2018-11-29T05:33:36.270Z,30.2
2018-11-29T05:34:25.882Z,30.3
2018-11-29T05:35:15.878Z,30.4
2018-11-29T05:36:05.666Z,30.2
2018-11-29T05:36:56.955Z,29.9
2018-11-29T05:37:45.787Z,29
2018-11-29T05:38:36.679Z,28.1
2018-11-29T05:39:26.457Z,27.1
2018-11-29T05:40:16.248Z,26.1
2018-11-29T05:41:06.892Z,25.5
2018-11-29T05:41:56.998Z,25.5
2018-11-29T05:42:46.730Z,26.1
2018-11-29T05:43:37.020Z,27
2018-11-29T05:45:16.902Z,28
2018-11-29T05:46:07.184Z,28.3
2018-11-29T05:46:57.894Z,28.4
2018-11-29T05:47:47.492Z,28.7
2018-11-29T05:48:37.044Z,28.9
2018-11-29T05:49:27.409Z,29.2
2018-11-29T05:50:18.294Z,29.4
2018-11-29T05:51:08.584Z,29.6
2018-11-29T05:51:58.950Z,29.8
2018-11-29T05:52:49.894Z,29.9
2018-11-29T05:53:38.466Z,30.1
2018-11-29T05:54:28.235Z,30.3
2018-11-29T05:55:18.081Z,30.4
2018-11-29T05:56:08.486Z,30.5
2018-11-29T05:56:57.679Z,30.6
2018-11-29T05:57:48.848Z,30.8
2018-11-29T05:58:38.803Z,30.8
2018-11-29T05:59:28.374Z,30.9
2018-11-29T06:00:18.451Z,31
2018-11-29T06:01:08.151Z,31.1
2018-11-29T06:01:58.338Z,31.2
2018-11-29T06:02:48.358Z,31.3
2018-11-29T06:03:38.668Z,31.3
2018-11-29T06:04:28.463Z,31.1
2018-11-29T06:05:18.816Z,30.9
2018-11-29T06:06:09.948Z,30.8
2018-11-29T06:06:58.609Z,30.7
2018-11-29T06:07:49.178Z,30.6
2018-11-29T06:08:38.778Z,30.4
2018-11-29T06:09:29.275Z,30.3
2018-11-29T06:10:18.028Z,30.1
2018-11-29T06:11:10.221Z,30
2018-11-29T06:12:00.027Z,29.8
2018-11-29T06:12:49.865Z,29.4
2018-11-29T06:13:39.848Z,28.1
2018-11-29T06:14:29.598Z,27.5
2018-11-29T06:15:19.685Z,27.2
2018-11-29T06:16:11.060Z,26.9
2018-11-29T06:17:00.625Z,26.8
2018-11-29T06:17:50.890Z,26.6
2018-11-29T06:18:40.240Z,26.5
2018-11-29T06:19:29.677Z,26.4
2018-11-29T06:20:18.897Z,26.2
2018-11-29T06:21:10.574Z,26.3
2018-11-29T06:22:00.740Z,26.8
2018-11-29T06:22:49.907Z,27.6
2018-11-29T06:24:29.750Z,28.1
2018-11-29T06:25:20.597Z,28.3
2018-11-29T06:26:10.546Z,28.5
2018-11-29T06:27:00.169Z,28.7
2018-11-29T06:27:49.468Z,28.9
2018-11-29T06:28:40.383Z,29.2
2018-11-29T06:29:29.899Z,29.4
2018-11-29T06:30:19.382Z,29.6
2018-11-29T06:31:10.249Z,29.8
2018-11-29T06:32:00.592Z,29.9
2018-11-29T06:32:50.944Z,30
2018-11-29T06:33:39.897Z,30.1
2018-11-29T06:34:31.277Z,30.3
2018-11-29T06:35:20.582Z,30.4
2018-11-29T06:36:11.458Z,30.5
2018-11-29T06:37:01.201Z,30.6
2018-11-29T06:37:51.763Z,30.7
2018-11-29T06:38:41.543Z,30.8
2018-11-29T06:39:31.613Z,30.9
2018-11-29T06:40:21.961Z,30.9
2018-11-29T06:41:10.882Z,31
2018-11-29T06:42:02.081Z,31.1
2018-11-29T06:42:51.646Z,31.1
2018-11-29T06:43:40.281Z,31.2
2018-11-29T06:44:31.413Z,31.3
2018-11-29T06:45:21.783Z,31.3
2018-11-29T06:46:12.076Z,31.2
2018-11-29T06:47:02.664Z,31
2018-11-29T06:47:51.993Z,30.9
2018-11-29T06:48:41.503Z,30.7
2018-11-29T06:49:31.526Z,30.6
2018-11-29T06:50:20.866Z,30.4
2018-11-29T06:51:12.483Z,30.3
2018-11-29T06:52:01.960Z,30.1
2018-11-29T06:52:52.628Z,30
2018-11-29T06:53:41.316Z,29.8
2018-11-29T06:54:31.870Z,29.2
2018-11-29T06:55:21.098Z,28.1
2018-11-29T06:56:12.755Z,27.6
2018-11-29T06:57:02.056Z,27.3
2018-11-29T06:57:51.652Z,27
2018-11-29T06:58:42.013Z,26.9
2018-11-29T06:59:32.062Z,26.8
2018-11-29T07:00:22.642Z,26.6
2018-11-29T07:01:12.635Z,26.4
2018-11-29T07:02:03.430Z,26.3
2018-11-29T07:02:52.512Z,26.3
2018-11-29T07:03:44.334Z,26.6
2018-11-29T07:04:33.633Z,27.3
2018-11-29T07:05:23.375Z,27.9
2018-11-29T07:06:13.232Z,28
2018-11-29T07:07:03.007Z,28.2
2018-11-29T07:07:53.894Z,28.4
2018-11-29T07:08:43.128Z,28.7
2018-11-29T07:09:33.477Z,28.9
2018-11-29T07:10:22.092Z,29.1
2018-11-29T07:11:14.098Z,29.3
2018-11-29T07:12:03.327Z,29.5
2018-11-29T07:12:53.417Z,29.7
2018-11-29T07:13:43.464Z,29.9
2018-11-29T07:14:35.098Z,30
2018-11-29T07:15:23.818Z,30.1
2018-11-29T07:16:13.349Z,30.3
2018-11-29T07:17:03.952Z,30.4
2018-11-29T07:17:53.817Z,30.5
2018-11-29T07:18:45.096Z,30.6
2018-11-29T07:19:35.878Z,30.7
2018-11-29T07:20:24.477Z,30.8
2018-11-29T07:21:14.774Z,30.9
2018-11-29T07:22:03.434Z,30.9
2018-11-29T07:22:53.814Z,31
2018-11-29T07:23:43.716Z,31.1
2018-11-29T07:24:34.978Z,31.2
2018-11-29T07:25:24.494Z,31.3
2018-11-29T07:26:14.885Z,31.3
2018-11-29T07:27:04.858Z,31.2
2018-11-29T07:27:54.666Z,31
2018-11-29T07:28:45.035Z,30.9
2018-11-29T07:29:35.146Z,30.8
2018-11-29T07:30:24.386Z,30.6
2018-11-29T07:31:14.970Z,30.4
2018-11-29T07:32:04.506Z,30.3
2018-11-29T07:32:54.374Z,30.1
2018-11-29T07:33:44.883Z,30
2018-11-29T07:34:34.406Z,29.9
2018-11-29T07:35:24.900Z,29.8
2018-11-29T07:36:15.346Z,28.8
2018-11-29T07:37:05.579Z,27.8
2018-11-29T07:37:55.922Z,27.3
2018-11-29T07:38:45.145Z,27
2018-11-29T07:39:36.071Z,26.8
2018-11-29T07:40:25.550Z,26.6
2018-11-29T07:41:14.740Z,26.4
2018-11-29T07:42:05.984Z,26.4
2018-11-29T07:42:55.827Z,26.1
2018-11-29T07:43:46.287Z,26.2
2018-11-29T07:44:35.299Z,26.6
2018-11-29T07:45:25.948Z,27.3
2018-11-29T07:46:15.983Z,28.1
2018-11-29T07:47:06.049Z,28.1
2018-11-29T07:47:56.762Z,28.3
2018-11-29T07:48:45.902Z,28.5
2018-11-29T07:49:36.186Z,28.8
2018-11-29T07:50:26.774Z,28.9
2018-11-29T07:51:15.992Z,29.2
2018-11-29T07:52:06.051Z,29.4
2018-11-29T07:52:55.031Z,29.6
2018-11-29T07:53:45.909Z,29.8
2018-11-29T07:54:36.789Z,29.9
2018-11-29T07:55:26.043Z,30.1
2018-11-29T07:56:16.946Z,30.1
2018-11-29T07:57:06.258Z,30.3
2018-11-29T07:57:56.641Z,30.4
2018-11-29T07:58:45.343Z,30.5
2018-11-29T07:59:36.411Z,30.6
2018-11-29T08:00:26.448Z,30.7
2018-11-29T08:01:16.508Z,30.8
2018-11-29T08:02:06.708Z,30.9
2018-11-29T08:02:56.312Z,30.9
2018-11-29T08:03:47.702Z,31.1
2018-11-29T08:04:37.508Z,31.1
2018-11-29T08:05:27.425Z,31.2
2018-11-29T08:06:16.795Z,31.3
2018-11-29T08:07:07.658Z,31.3
2018-11-29T08:07:58.262Z,31.2
2018-11-29T08:08:47.665Z,31
2018-11-29T08:09:37.860Z,30.9
2018-11-29T08:10:27.870Z,30.8
2018-11-29T08:11:17.648Z,30.6
2018-11-29T08:12:07.448Z,30.4
2018-11-29T08:12:58.399Z,30.3
2018-11-29T08:13:47.335Z,30.1
2018-11-29T08:14:37.402Z,30
2018-11-29T08:15:27.978Z,29.9
2018-11-29T08:16:18.007Z,29.8
2018-11-29T08:17:07.333Z,28.4
2018-11-29T08:17:58.420Z,27.7
2018-11-29T08:18:48.798Z,27.3
2018-11-29T08:19:39.112Z,27
2018-11-29T08:20:29.172Z,26.8
2018-11-29T08:21:18.657Z,26.7
2018-11-29T08:22:08.405Z,26.5
2018-11-29T08:22:58.497Z,26.4
2018-11-29T08:23:48.520Z,26.2
2018-11-29T08:24:38.365Z,26.2
2018-11-29T08:25:29.764Z,26.6
2018-11-29T08:26:19.239Z,27.3
2018-11-29T08:27:07.634Z,27.9
2018-11-29T08:27:58.541Z,28
2018-11-29T08:28:47.864Z,28.3
2018-11-29T08:29:44.199Z,28.5
2018-11-29T08:30:29.038Z,28.8
2018-11-29T08:31:19.053Z,28.9
2018-11-29T08:32:09.694Z,29.2
2018-11-29T08:32:59.217Z,29.3
2018-11-29T08:33:49.531Z,29.3
2018-11-29T08:34:39.621Z,29.1
2018-11-29T08:35:30.199Z,28.2
2018-11-29T08:36:20.281Z,27.4
2018-11-29T08:37:10.299Z,26.5
2018-11-29T08:37:59.301Z,25.5
2018-11-29T08:38:49.278Z,24.8
2018-11-29T08:39:40.453Z,24.8
2018-11-29T08:40:29.417Z,25.3
2018-11-29T08:41:19.739Z,26.1
2018-11-29T08:42:09.565Z,27.2
2018-11-29T08:42:59.901Z,27.6
2018-11-29T08:43:49.473Z,27.9
2018-11-29T08:44:39.022Z,28.1
2018-11-29T08:45:29.086Z,28.3
2018-11-29T08:46:19.613Z,28.5
2018-11-29T08:47:09.970Z,28.8
2018-11-29T08:48:00.016Z,29
2018-11-29T08:48:48.695Z,29.2
2018-11-29T08:49:40.138Z,29.4
2018-11-29T08:50:29.835Z,29.6
2018-11-29T08:51:20.425Z,29.8
2018-11-29T08:52:10.258Z,29.9
2018-11-29T09:08:49.579Z,30.5
2018-11-29T09:09:39.711Z,30.4
2018-11-29T09:10:36.091Z,30.2
2018-11-29T09:11:19.296Z,30.1
2018-11-29T09:12:10.188Z,29.9
2018-11-29T09:13:00.256Z,29.8
2018-11-29T09:13:50.001Z,29.1
2018-11-29T09:14:39.361Z,27.9
2018-11-29T09:15:29.573Z,27.4
2018-11-29T09:16:20.217Z,27
2018-11-29T09:17:10.874Z,26.8
2018-11-29T09:18:00.288Z,26.6
2018-11-29T09:18:50.048Z,26.4
2018-11-29T09:19:44.086Z,26.3
2018-11-29T09:20:30.586Z,26.1
2018-11-29T09:21:20.246Z,26.2
2018-11-29T09:22:10.063Z,26.6
2018-11-29T09:23:00.174Z,27.3
2018-11-29T09:23:50.416Z,27.6
2018-11-29T09:24:40.758Z,27.9
2018-11-29T09:25:29.943Z,28.1
2018-11-29T09:26:19.850Z,28.4
2018-11-29T09:27:10.463Z,28.6
2018-11-29T09:28:00.307Z,28.9
2018-11-29T09:28:50.693Z,29.2
2018-11-29T09:29:40.893Z,29.4
2018-11-29T09:30:30.873Z,29.6
2018-11-29T09:31:20.415Z,29.8
2018-11-29T09:32:10.742Z,29.9
2018-11-29T09:33:01.080Z,30.1
2018-11-29T09:33:50.848Z,30.2
2018-11-29T09:34:41.413Z,30.3
2018-11-29T09:35:31.512Z,30.4
2018-11-29T09:36:22.368Z,30.5
2018-11-29T09:37:10.889Z,30.6
2018-11-29T09:38:01.715Z,30.7
2018-11-29T09:38:50.330Z,30.8
2018-11-29T09:39:41.553Z,30.9
2018-11-29T09:40:31.520Z,31
2018-11-29T09:41:21.075Z,31.1
2018-11-29T09:42:11.643Z,31.1
2018-11-29T09:43:00.427Z,31.2
2018-11-29T09:43:52.372Z,31.3
2018-11-29T09:44:41.633Z,31.2
2018-11-29T09:45:32.322Z,31.1
2018-11-29T09:46:22.037Z,30.9
2018-11-29T09:47:11.490Z,30.8
2018-11-29T09:48:01.837Z,30.6
2018-11-29T09:48:51.880Z,30.4
2018-11-29T09:49:41.517Z,30.3
2018-11-29T09:50:31.759Z,30.2
2018-11-29T09:51:22.050Z,30
2018-11-29T09:52:12.095Z,29.9
2018-11-29T09:53:02.182Z,29.8
2018-11-29T09:53:51.937Z,28.3
2018-11-29T09:54:43.219Z,27.6
2018-11-29T09:55:32.054Z,27.2
2018-11-29T09:56:22.440Z,26.9
2018-11-29T09:57:12.459Z,26.8
2018-11-29T09:58:02.786Z,26.6
2018-11-29T09:58:54.288Z,26.5
2018-11-29T09:59:42.877Z,26.3
2018-11-29T10:00:37.149Z,26.1
2018-11-29T10:01:22.687Z,26.2
2018-11-29T10:02:12.369Z,26.6
2018-11-29T10:03:03.131Z,27.2
2018-11-29T10:03:53.243Z,27.4
2018-11-29T10:05:33.309Z,28.1
2018-11-29T10:06:23.626Z,28.3
2018-11-29T10:07:13.798Z,28.6
2018-11-29T10:08:01.924Z,28.9
2018-11-29T10:08:52.710Z,29.1
2018-11-29T10:09:44.196Z,29.3
2018-11-29T10:10:33.548Z,29.5
2018-11-29T10:11:24.576Z,29.7
2018-11-29T10:12:13.269Z,29.9
2018-11-29T10:13:03.823Z,30
2018-11-29T10:13:55.502Z,30.1
2018-11-29T10:14:44.001Z,30.3
2018-11-29T10:15:33.486Z,30.4
2018-11-29T10:16:23.816Z,30.5
2018-11-29T10:17:13.365Z,30.6
2018-11-29T10:18:03.709Z,30.7
2018-11-29T10:18:53.145Z,30.8
2018-11-29T10:19:44.115Z,30.9
2018-11-29T10:20:33.950Z,30.9
2018-11-29T10:21:23.645Z,31.1
2018-11-29T10:22:15.327Z,31.1
2018-11-29T10:23:04.840Z,31.2
2018-11-29T10:23:53.752Z,31.2
2018-11-29T10:24:44.414Z,31.1
2018-11-29T10:25:33.913Z,30.9
2018-11-29T10:26:24.867Z,30.8
2018-11-29T10:27:14.508Z,30.6
2018-11-29T10:28:05.264Z,30.4
2018-11-29T10:28:55.051Z,30.3
2018-11-29T10:29:43.697Z,30.2
2018-11-29T10:30:34.868Z,30.1
2018-11-29T10:31:24.835Z,29.9
2018-11-29T10:32:14.927Z,29.8
2018-11-29T10:33:05.017Z,28.7
2018-11-29T10:34:45.334Z,27.3
2018-11-29T10:35:35.972Z,27
2018-11-29T10:36:25.472Z,26.8
2018-11-29T10:37:16.052Z,26.6
2018-11-29T10:38:04.844Z,26.5
2018-11-29T10:38:55.727Z,26.4
2018-11-29T10:39:46.810Z,26.1
2018-11-29T10:40:36.617Z,26.1
2018-11-29T10:41:25.874Z,26.4
2018-11-29T10:42:16.350Z,26.9
2018-11-29T10:43:06.021Z,27.3
2018-11-29T10:43:55.519Z,27.6
2018-11-29T10:44:46.021Z,27.9
2018-11-29T10:45:35.536Z,28.3
2018-11-29T10:46:26.434Z,28.5
2018-11-29T10:47:15.623Z,28.8
2018-11-29T10:48:06.779Z,29.1
2018-11-29T10:48:56.879Z,29.3
2018-11-29T10:49:46.928Z,29.5
2018-11-29T10:50:35.581Z,29.7
2018-11-29T10:51:26.346Z,29.8
2018-11-29T10:52:16.782Z,29.9
2018-11-29T10:53:06.954Z,30.1
2018-11-29T10:53:56.673Z,30.3
2018-11-29T10:54:46.399Z,30.4
2018-11-29T10:55:35.791Z,30.5
2018-11-29T10:56:25.573Z,30.6
2018-11-29T10:57:17.238Z,30.7
2018-11-29T10:58:06.664Z,30.8
2018-11-29T10:58:56.780Z,30.9
2018-11-29T10:59:47.565Z,30.9
2018-11-29T11:00:37.126Z,31.1
2018-11-29T11:01:26.627Z,31.1
2018-11-29T11:02:16.964Z,31.2
2018-11-29T11:03:07.303Z,31.3
2018-11-29T11:03:56.775Z,31.1
2018-11-29T11:04:47.087Z,31
2018-11-29T11:05:36.453Z,30.9
2018-11-29T11:06:26.682Z,30.7
2018-11-29T11:07:17.315Z,30.6
2018-11-29T11:08:15.946Z,30.4
2018-11-29T11:08:57.660Z,30.3
2018-11-29T11:09:47.530Z,30.1
2018-11-29T11:10:37.007Z,30
2018-11-29T11:11:28.257Z,29.8
2018-11-29T11:12:22.480Z,29.3
2018-11-29T11:13:06.977Z,28
2018-11-29T11:13:57.035Z,27.5
2018-11-29T11:14:48.086Z,27.1
2018-11-29T11:15:38.533Z,26.9
2018-11-29T11:16:27.895Z,26.7
2018-11-29T11:17:17.782Z,26.6
2018-11-29T11:18:08.313Z,26.4
2018-11-29T11:18:58.210Z,26.3
2018-11-29T11:19:47.857Z,25.5
2018-11-29T11:20:37.222Z,25.3
2018-11-29T11:21:27.707Z,25.5
2018-11-29T11:22:19.189Z,26
2018-11-29T11:23:09.206Z,26.5
2018-11-29T11:24:05.620Z,26.8
2018-11-29T11:24:48.757Z,27.1
2018-11-29T11:25:38.372Z,27.4
2018-11-29T11:26:29.133Z,27.6
2018-11-29T11:27:18.629Z,27.9
2018-11-29T11:28:07.690Z,28.2
2018-11-29T11:28:59.051Z,28.4
2018-11-29T11:29:48.891Z,28.4
2018-11-29T11:30:38.910Z,28.2
2018-11-29T11:31:37.939Z,27.4
2018-11-29T11:32:18.734Z,26.5
2018-11-29T11:33:09.099Z,25.8
2018-11-29T11:33:59.424Z,24.9
2018-11-29T11:34:49.611Z,24.4
2018-11-29T11:35:38.415Z,24.5
2018-11-29T11:36:29.563Z,25.1
2018-11-29T11:37:19.310Z,25.9
2018-11-29T11:38:08.704Z,26.8
2018-11-29T11:38:58.926Z,27.1
2018-11-29T11:39:49.783Z,27.3
2018-11-29T11:40:39.681Z,27.5
2018-11-29T11:41:58.397Z,27.7
2018-11-29T11:42:20.040Z,28.1
2018-11-29T11:43:14.483Z,28.2
2018-11-29T11:44:00.180Z,28.4
2018-11-29T11:44:50.191Z,28.6
2018-11-29T11:45:39.685Z,28.8
2018-11-29T11:46:30.268Z,29
2018-11-29T11:47:20.640Z,29.2
2018-11-29T11:48:11.310Z,29.3
2018-11-29T11:49:00.395Z,29.5
2018-11-29T11:49:50.593Z,29.6
2018-11-29T11:50:40.575Z,29.8
2018-11-29T11:51:30.310Z,29.9
2018-11-29T11:52:19.995Z,29.9
2018-11-29T11:53:11.357Z,30.1
2018-11-29T11:53:59.793Z,30.2
2018-11-29T11:54:50.357Z,30.3
2018-11-29T11:55:40.970Z,30.3
2018-11-29T11:56:30.807Z,30.4
2018-11-29T11:57:19.882Z,30.5
2018-11-29T11:58:10.756Z,30.6
2018-11-29T11:59:00.525Z,30.7
2018-11-29T11:59:50.049Z,30.8
2018-11-29T12:00:41.304Z,30.8
2018-11-29T12:01:31.912Z,30.9
2018-11-29T12:02:28.489Z,30.9
2018-11-29T12:03:11.535Z,31
2018-11-29T12:04:02.969Z,30.9
2018-11-29T12:04:56.299Z,30.8
2018-11-29T12:05:40.866Z,30.6